createdAt,value
2022-10-12T00:05:01.062Z,18.77
2022-10-12T00:10:05.530Z,15.48
2022-10-12T00:15:08.593Z,22.65
2022-10-12T00:20:11.820Z,17.90
2022-10-12T00:25:14.527Z,15.55
2022-10-12T00:30:17.237Z,18.95
2022-10-12T00:35:19.809Z,15.95
2022-10-12T00:40:23.352Z,16.23
2022-10-12T00:45:27.077Z,17.30
2022-10-12T00:50:35.482Z,16.85
2022-10-12T00:55:44.709Z,26.40
2022-10-12T01:00:47.498Z,16.77
2022-10-12T01:05:50.398Z,17.88
2022-10-12T01:10:53.022Z,17.77
2022-10-12T01:16:25.388Z,19.63
2022-10-12T01:21:28.684Z,15.05
2022-10-12T01:26:39.940Z,15.75
2022-10-12T01:31:53.088Z,18.83
2022-10-12T01:37:11.725Z,16.73
2022-10-12T01:42:20.406Z,19.10
2022-10-12T01:47:23.060Z,19.83
2022-10-12T01:52:32.224Z,17.27
2022-10-12T01:58:01.116Z,14.35
2022-10-12T02:03:17.317Z,16.98
2022-10-12T02:08:26.440Z,14.75
2022-10-12T02:13:33.175Z,21.80
2022-10-12T02:18:40.706Z,17.15
2022-10-12T02:23:45.725Z,16.20
2022-10-12T02:28:50.639Z,16.70
2022-10-12T02:34:13.532Z,12.40
2022-10-12T02:39:45.900Z,15.70
2022-10-12T02:44:49.322Z,15.45
2022-10-12T02:49:53.794Z,11.40
2022-10-12T02:54:56.465Z,16.75
2022-10-12T02:59:59.053Z,16.15
2022-10-12T03:05:01.644Z,14.00
2022-10-12T03:10:05.817Z,18.15
2022-10-12T03:15:08.629Z,14.05
2022-10-12T03:20:11.582Z,14.05
2022-10-12T03:25:14.634Z,19.20
2022-10-12T03:30:17.394Z,13.85
2022-10-12T03:35:19.965Z,13.07
2022-10-12T03:40:22.604Z,16.33
2022-10-12T03:45:25.201Z,16.05
2022-10-12T03:50:27.914Z,17.98
2022-10-12T03:55:31.588Z,19.73
2022-10-12T04:00:34.368Z,20.35
2022-10-12T04:05:36.984Z,25.80
2022-10-12T04:10:39.605Z,18.67
2022-10-12T04:15:42.161Z,24.17
2022-10-12T04:20:48.097Z,24.27
2022-10-12T04:25:50.774Z,31.27
2022-10-12T04:30:53.418Z,24.50
2022-10-12T04:35:56.270Z,24.08
2022-10-12T04:40:59.010Z,78.75
2022-10-12T04:46:01.656Z,35.75
2022-10-12T04:51:11.632Z,26.75
2022-10-12T04:56:14.511Z,23.35
2022-10-12T05:01:17.184Z,19.90
2022-10-12T05:06:19.797Z,22.75
2022-10-12T05:11:22.366Z,24.52
2022-10-12T05:16:25.277Z,24.73
2022-10-12T05:21:27.952Z,25.65
2022-10-12T05:26:30.543Z,17.20
2022-10-12T05:31:33.157Z,26.13
2022-10-12T05:36:35.824Z,24.40
2022-10-12T05:41:38.809Z,32.50
2022-10-12T05:46:41.374Z,22.25
2022-10-12T05:51:44.178Z,32.40
2022-10-12T05:56:46.948Z,30.40
2022-10-12T06:01:50.107Z,16.23
2022-10-12T06:06:52.808Z,18.20
2022-10-12T06:11:55.437Z,25.60
2022-10-12T06:16:58.136Z,16.55
2022-10-12T06:22:00.743Z,20.08
2022-10-12T06:27:03.410Z,16.73
2022-10-12T06:32:06.079Z,14.05
2022-10-12T06:37:16.401Z,15.73
2022-10-12T06:42:31.737Z,11.70
2022-10-12T06:47:34.421Z,11.00
2022-10-12T06:52:37.622Z,6.70
2022-10-12T06:57:40.544Z,5.63
2022-10-12T07:02:43.143Z,7.13
2022-10-12T07:07:46.003Z,9.98
2022-10-12T07:12:48.664Z,7.22
2022-10-12T07:17:51.283Z,8.48
2022-10-12T07:22:53.931Z,7.88
2022-10-12T07:27:56.857Z,9.35
2022-10-12T07:32:59.483Z,9.88
2022-10-12T07:38:03.008Z,12.50
2022-10-12T07:43:15.680Z,9.05
2022-10-12T07:48:19.589Z,21.50
2022-10-12T07:53:22.205Z,10.52
2022-10-12T07:58:24.904Z,13.05
2022-10-12T08:03:27.541Z,11.80
2022-10-12T08:08:30.245Z,12.32
2022-10-12T08:13:33.860Z,12.05
2022-10-12T08:18:36.584Z,17.02
2022-10-12T08:23:40.512Z,13.05
2022-10-12T08:28:43.694Z,13.38
2022-10-12T08:33:46.610Z,9.93
2022-10-12T08:38:55.027Z,12.25
2022-10-12T08:44:19.763Z,9.98
2022-10-12T08:49:25.355Z,12.30
2022-10-12T08:54:35.541Z,10.55
2022-10-12T08:59:38.188Z,12.65
2022-10-12T09:04:49.734Z,10.52
2022-10-12T09:10:12.517Z,10.38
2022-10-12T09:15:20.224Z,11.73
2022-10-12T09:20:50.793Z,8.63
2022-10-12T09:26:06.890Z,10.40
2022-10-12T09:31:40.257Z,12.43
2022-10-12T09:36:43.467Z,9.77
2022-10-12T09:41:48.920Z,8.82
2022-10-12T09:47:06.419Z,9.68
2022-10-12T09:52:10.331Z,11.60
2022-10-12T09:57:21.417Z,12.93
2022-10-12T10:02:26.698Z,10.60
2022-10-12T10:07:34.662Z,12.02
2022-10-12T10:13:01.737Z,13.27
2022-10-12T10:18:30.467Z,12.35
2022-10-12T10:23:42.537Z,12.02
2022-10-12T10:34:09.957Z,11.27
2022-10-12T10:39:22.658Z,10.82
2022-10-12T10:44:33.850Z,8.57
2022-10-12T10:49:44.386Z,7.30
2022-10-12T10:55:05.642Z,9.45
2022-10-12T11:05:50.555Z,13.02
2022-10-12T11:10:56.335Z,8.77
2022-10-12T11:16:05.310Z,11.48
2022-10-12T11:21:14.508Z,10.10
2022-10-12T11:26:38.526Z,11.77
2022-10-12T11:31:59.147Z,10.68
2022-10-12T11:37:19.978Z,8.73
2022-10-12T11:42:43.068Z,13.63
2022-10-12T11:47:51.580Z,10.82
2022-10-12T11:52:56.677Z,12.48
2022-10-12T11:58:13.136Z,7.95
2022-10-12T12:03:45.743Z,10.63
2022-10-12T12:19:17.772Z,11.80
2022-10-12T12:24:20.515Z,8.32
2022-10-12T12:29:28.333Z,6.22
2022-10-12T12:34:31.026Z,7.78
2022-10-12T12:39:35.145Z,7.38
2022-10-12T12:44:37.673Z,6.72
2022-10-12T12:49:40.525Z,6.85
2022-10-12T12:55:08.201Z,5.22
2022-10-12T13:06:41.003Z,7.53
2022-10-12T13:12:05.269Z,8.52
2022-10-12T13:17:31.993Z,8.32
2022-10-12T13:22:35.378Z,14.05
2022-10-12T13:27:48.869Z,9.00
2022-10-12T13:33:02.519Z,9.77
2022-10-12T13:38:14.192Z,11.50
2022-10-12T13:43:26.806Z,9.88
2022-10-12T13:48:59.287Z,11.38
2022-10-12T13:53:55.766Z,7.60
2022-10-12T13:59:05.581Z,11.05
2022-10-12T14:04:11.756Z,8.93
2022-10-12T14:09:21.798Z,10.43
2022-10-12T14:14:29.106Z,12.32
2022-10-12T14:19:53.353Z,15.27
2022-10-12T14:25:09.157Z,18.13
2022-10-12T14:30:19.632Z,18.33
2022-10-12T14:35:32.566Z,10.55
2022-10-12T14:40:40.652Z,14.93
2022-10-12T14:45:43.269Z,11.10
2022-10-12T14:50:46.680Z,11.70
2022-10-12T14:55:52.295Z,12.80
2022-10-12T15:00:57.426Z,15.07
2022-10-12T15:06:00.168Z,16.88
2022-10-12T15:11:02.747Z,16.52
2022-10-12T15:16:14.545Z,17.88
2022-10-12T15:21:17.553Z,13.00
2022-10-12T15:26:20.254Z,17.13
2022-10-12T15:31:22.780Z,21.27
2022-10-12T15:36:25.525Z,15.98
2022-10-12T15:41:28.701Z,14.30
2022-10-12T15:46:31.292Z,15.00
2022-10-12T15:51:39.351Z,18.05
2022-10-12T15:56:41.923Z,15.45
2022-10-12T16:01:44.970Z,13.02
2022-10-12T16:06:47.565Z,15.07
2022-10-12T16:11:50.359Z,19.33
2022-10-12T16:16:52.945Z,16.38
2022-10-12T16:21:55.561Z,21.23
2022-10-12T16:26:58.330Z,19.17
2022-10-12T16:32:01.034Z,17.38
2022-10-12T16:37:03.581Z,17.88
2022-10-12T16:42:06.493Z,15.40
2022-10-12T16:47:09.127Z,18.83
2022-10-12T16:52:12.288Z,23.77
2022-10-12T16:57:15.025Z,22.02
2022-10-12T17:02:19.767Z,14.10
2022-10-12T17:07:22.605Z,18.05
2022-10-12T17:12:25.889Z,23.48
2022-10-12T17:17:28.477Z,32.70
2022-10-12T17:22:31.071Z,44.92
2022-10-12T17:27:34.153Z,21.17
2022-10-12T17:32:38.081Z,19.90
2022-10-12T17:37:40.780Z,18.80
2022-10-12T17:42:45.022Z,18.63
2022-10-12T17:47:48.996Z,19.10
2022-10-12T17:52:51.637Z,18.33
2022-10-12T17:57:54.236Z,23.30
2022-10-12T18:02:57.650Z,19.30
2022-10-12T18:08:00.259Z,16.30
2022-10-12T18:13:02.861Z,19.55
2022-10-12T18:18:05.616Z,22.23
2022-10-12T18:23:08.387Z,23.52
2022-10-12T18:28:12.292Z,18.48
2022-10-12T18:33:15.904Z,22.42
2022-10-12T18:38:18.549Z,24.48
2022-10-12T18:43:21.170Z,25.48
2022-10-12T18:48:23.953Z,26.75
2022-10-12T18:53:28.240Z,23.98
2022-10-12T18:58:31.954Z,25.88
2022-10-12T19:03:34.513Z,24.38
2022-10-12T19:08:37.874Z,19.73
2022-10-12T19:13:41.398Z,26.08
2022-10-12T19:18:44.141Z,25.33
2022-10-12T19:23:47.525Z,18.38
2022-10-12T19:28:51.242Z,19.30
2022-10-12T19:33:59.460Z,22.02
2022-10-12T19:39:07.712Z,18.42
2022-10-12T19:44:11.589Z,16.75
2022-10-12T19:49:16.187Z,18.17
2022-10-12T19:54:19.761Z,16.08
2022-10-12T19:59:22.344Z,17.08
2022-10-12T20:04:24.996Z,17.13
2022-10-12T20:09:27.973Z,16.85
2022-10-12T20:14:30.605Z,17.27
2022-10-12T20:19:33.536Z,18.58
2022-10-12T20:24:37.146Z,15.38
2022-10-12T20:29:40.272Z,16.92
2022-10-12T20:34:42.888Z,14.23
2022-10-12T20:39:49.618Z,13.30
2022-10-12T20:44:52.272Z,18.25
2022-10-12T20:49:54.868Z,16.83
2022-10-12T20:54:58.060Z,17.13
2022-10-12T21:00:00.739Z,14.90
2022-10-12T21:05:03.332Z,15.73
2022-10-12T21:10:06.685Z,19.30
2022-10-12T21:15:09.880Z,19.25
2022-10-12T21:20:12.733Z,16.48
2022-10-12T21:25:15.315Z,17.90
2022-10-12T21:30:18.110Z,17.48
2022-10-12T21:35:20.670Z,20.55
2022-10-12T21:40:23.270Z,16.08
2022-10-12T21:45:26.274Z,14.52
2022-10-12T21:50:28.957Z,14.90
2022-10-12T21:55:33.191Z,18.60
2022-10-12T22:00:35.859Z,13.88
2022-10-12T22:05:39.969Z,16.80
2022-10-12T22:10:42.849Z,14.07
2022-10-12T22:15:45.737Z,15.70
2022-10-12T22:20:48.357Z,15.02
2022-10-12T22:25:51.127Z,15.55
2022-10-12T22:30:53.651Z,14.07
2022-10-12T22:35:57.633Z,16.38
2022-10-12T22:41:11.848Z,12.90
2022-10-12T22:46:23.639Z,9.90
2022-10-12T22:51:33.525Z,19.67
2022-10-12T22:56:36.218Z,14.63
2022-10-12T23:01:38.858Z,13.93
2022-10-12T23:06:41.454Z,13.57
2022-10-12T23:11:44.113Z,9.65
2022-10-12T23:16:46.677Z,14.43
2022-10-12T23:21:49.261Z,13.88
2022-10-12T23:26:51.945Z,15.82
2022-10-12T23:31:54.557Z,12.05
2022-10-12T23:36:57.098Z,11.82
2022-10-12T23:41:59.619Z,11.60
2022-10-12T23:47:02.154Z,11.95
2022-10-12T23:52:04.978Z,13.82
2022-10-12T23:57:22.524Z,13.95
